リスボン の空港の天気 - METARとTAF

ポルテラ空港 ( LPPT / LIS ) - ポルトガル リスボン
飛行場実況気象(Metar)
観測時間07/07 14:00 WEST (07/07 13:00 UTC)
風向・風速南 3m/s
視程10km以上
天気現象
なし
気温31℃
湿度40%
気圧1014hPa
METARLPPT 071300Z 17005KT 100V260 CAVOK 31/16 Q1014
過去の天気等 Google飛行場航空写真 Wunderground天気予報

過去48時間のMETAR

飛行場予報(TAF)
発表時間: 7/07 12:00 WEST (7/07 11:00 UTC)
予報対象時間: 7日13時 WEST ~ 8日19時 WEST
風向・風速不定 3m/s
視程10km以上
なし
7日13時 WEST ~ 7日15時 WEST に徐々に
風向・風速西南西 3m/s
7日16時 WEST ~ 7日18時 WEST に徐々に
風向・風速北西 7m/s
7日22時 WEST ~ 8日1時 WEST に徐々に
風向・風速西北西 4m/s
視程10km以上
全天の4割程度の雲 雲底高度 370m
8日1時 WEST ~ 8日9時 WEST に一時的に
全天の8割程度の雲 雲底高度 300m
8日10時 WEST ~ 8日13時 WEST に徐々に
少しの雲 雲底高度 910m
8日15時 WEST ~ 8日17時 WEST に徐々に
風向・風速北西 7m/s
TAF LPPT 071100Z 0712/0818 VRB05KT CAVOK
BECMG 0712/0714 24005KT
BECMG 0715/0717 32013KT
BECMG 0721/0724 30007KT 9999 SCT012
TEMPO 0800/0808 BKN010
BECMG 0809/0812 FEW030
BECMG 0814/0816 32013KT